createdAt,value
2017-12-05T00:01:36.100Z,29.23
2017-12-05T00:04:03.515Z,28.87
2017-12-05T00:06:33.548Z,24.47
2017-12-05T00:09:00.972Z,25.87
2017-12-05T00:11:29.162Z,23.83
2017-12-05T00:13:57.017Z,22.07
2017-12-05T00:16:25.207Z,23.03
2017-12-05T00:18:52.625Z,22.67
2017-12-05T00:21:20.053Z,23.37
2017-12-05T00:23:47.463Z,22.13
2017-12-05T00:26:15.663Z,20.13
2017-12-05T00:28:43.102Z,27.20
2017-12-05T00:31:11.283Z,24.93
2017-12-05T00:33:39.522Z,24.93
2017-12-05T00:36:06.943Z,23.37
2017-12-05T00:38:34.375Z,24.50
2017-12-05T00:41:01.793Z,21.03
2017-12-05T00:43:29.224Z,25.90
2017-12-05T00:45:56.653Z,25.87
2017-12-05T00:48:24.066Z,26.53
2017-12-05T00:50:52.271Z,23.37
2017-12-05T00:53:19.701Z,24.63
2017-12-05T00:55:47.883Z,27.50
2017-12-05T00:58:16.071Z,28.40
2017-12-05T01:00:50.723Z,27.23
2017-12-05T01:03:18.442Z,34.40
2017-12-05T01:05:45.877Z,29.87
2017-12-05T01:08:13.824Z,32.07
2017-12-05T01:10:41.235Z,31.93
2017-12-05T01:13:09.094Z,27.90
2017-12-05T01:15:37.307Z,26.87
2017-12-05T01:18:04.756Z,27.07
2017-12-05T01:20:32.160Z,24.17
2017-12-05T01:23:00.012Z,28.33
2017-12-05T01:25:27.649Z,27.53
2017-12-05T01:27:55.494Z,23.33
2017-12-05T01:30:22.918Z,26.07
2017-12-05T01:32:50.335Z,27.53
2017-12-05T01:35:17.766Z,34.10
2017-12-05T01:37:45.174Z,30.67
2017-12-05T01:40:12.605Z,26.00
2017-12-05T01:42:40.027Z,27.90
2017-12-05T01:45:07.465Z,26.37
2017-12-05T01:47:34.875Z,25.17
2017-12-05T01:50:02.716Z,26.80
2017-12-05T01:52:30.139Z,25.30
2017-12-05T01:55:11.043Z,24.83
2017-12-05T01:57:38.461Z,28.27
2017-12-05T02:00:06.715Z,29.43
2017-12-05T02:02:34.491Z,26.00
2017-12-05T02:05:01.944Z,26.97
2017-12-05T02:07:30.167Z,26.47
2017-12-05T02:09:58.374Z,26.57
2017-12-05T02:12:25.801Z,27.53
2017-12-05T02:14:53.222Z,27.53
2017-12-05T02:17:20.651Z,30.33
2017-12-05T02:19:48.071Z,29.90
2017-12-05T02:22:15.486Z,26.30
2017-12-05T02:24:42.915Z,29.47
2017-12-05T02:27:12.890Z,32.83
2017-12-05T02:29:41.069Z,32.47
2017-12-05T02:32:08.500Z,32.47
2017-12-05T02:34:36.039Z,30.67
2017-12-05T02:37:03.852Z,35.47
2017-12-05T02:39:31.268Z,32.77
2017-12-05T02:41:58.695Z,30.90
2017-12-05T02:44:26.364Z,28.63
2017-12-05T02:46:54.074Z,33.33
2017-12-05T02:49:22.805Z,30.37
2017-12-05T02:51:50.221Z,27.53
2017-12-05T02:54:18.837Z,32.40
2017-12-05T02:56:46.883Z,30.43
2017-12-05T02:59:15.347Z,30.77
2017-12-05T03:01:43.158Z,27.87
2017-12-05T03:04:10.571Z,26.23
2017-12-05T03:06:38.773Z,31.30
2017-12-05T03:09:07.324Z,29.90
2017-12-05T03:11:36.555Z,29.97
2017-12-05T03:14:03.980Z,30.87
2017-12-05T03:16:32.171Z,28.30
2017-12-05T03:19:00.360Z,32.20
2017-12-05T03:21:27.799Z,32.03
2017-12-05T03:23:55.983Z,34.90
2017-12-05T03:26:23.420Z,29.93
2017-12-05T03:28:52.127Z,28.03
2017-12-05T03:31:20.861Z,26.63
2017-12-05T03:33:48.289Z,28.80
2017-12-05T03:36:15.704Z,31.13
2017-12-05T03:38:43.896Z,29.30
2017-12-05T03:41:12.100Z,28.43
2017-12-05T03:43:39.528Z,30.00
2017-12-05T03:46:07.724Z,27.87
2017-12-05T03:48:35.555Z,30.13
2017-12-05T03:51:03.746Z,28.93
2017-12-05T03:53:40.971Z,27.77
2017-12-05T03:56:08.557Z,28.70
2017-12-05T03:58:35.988Z,27.57
2017-12-05T04:01:03.417Z,32.20
2017-12-05T04:03:30.847Z,28.17
2017-12-05T04:05:59.039Z,29.43
2017-12-05T04:08:26.471Z,27.63
2017-12-05T04:10:53.887Z,29.20
2017-12-05T04:13:21.319Z,29.47
2017-12-05T04:15:48.736Z,29.47
2017-12-05T04:18:16.715Z,28.60
2017-12-05T04:20:44.908Z,32.53
2017-12-05T04:23:12.332Z,33.20
2017-12-05T04:25:39.750Z,33.23
2017-12-05T04:28:07.392Z,33.37
2017-12-05T04:30:34.814Z,32.27
2017-12-05T04:33:02.244Z,31.73
2017-12-05T04:35:29.674Z,32.50
2017-12-05T04:37:59.566Z,34.73
2017-12-05T04:40:27.006Z,33.33
2017-12-05T04:42:54.415Z,32.40
2017-12-05T04:45:21.831Z,31.63
2017-12-05T04:47:49.961Z,32.10
2017-12-05T04:50:17.363Z,35.80
2017-12-05T04:52:44.797Z,30.33
2017-12-05T04:55:12.214Z,39.90
2017-12-05T04:57:39.666Z,33.27
2017-12-05T05:00:07.088Z,31.63
2017-12-05T05:02:35.274Z,31.67
2017-12-05T05:05:02.708Z,39.60
2017-12-05T05:07:32.815Z,37.07
2017-12-05T05:10:00.226Z,34.07
2017-12-05T05:12:27.664Z,37.37
2017-12-05T05:14:55.078Z,36.37
2017-12-05T05:17:23.063Z,39.90
2017-12-05T05:19:51.248Z,41.40
2017-12-05T05:25:13.266Z,37.63
2017-12-05T05:27:40.686Z,39.43
2017-12-05T05:30:08.112Z,34.40
2017-12-05T05:32:36.326Z,33.03
2017-12-05T05:35:09.403Z,33.60
2017-12-05T05:37:37.664Z,34.13
2017-12-05T05:40:05.088Z,33.50
2017-12-05T05:42:32.519Z,35.13
2017-12-05T05:45:02.526Z,34.17
2017-12-05T05:47:30.432Z,35.07
2017-12-05T05:49:57.827Z,32.20
2017-12-05T05:52:25.253Z,30.53
2017-12-05T05:54:53.438Z,35.30
2017-12-05T05:57:21.642Z,38.77
2017-12-05T05:59:49.284Z,33.53
2017-12-05T06:02:16.714Z,31.53
2017-12-05T06:04:44.903Z,34.67
2017-12-05T06:07:13.086Z,33.27
2017-12-05T06:09:40.506Z,32.67
2017-12-05T06:12:07.927Z,36.77
2017-12-05T06:14:35.354Z,37.10
2017-12-05T06:17:03.091Z,34.87
2017-12-05T06:19:30.514Z,33.63
2017-12-05T06:22:00.375Z,35.50
2017-12-05T06:24:28.556Z,32.60
2017-12-05T06:26:57.275Z,36.67
2017-12-05T06:29:26.069Z,32.27
2017-12-05T06:31:53.493Z,32.70
2017-12-05T06:34:21.688Z,35.40
2017-12-05T06:36:49.114Z,33.73
2017-12-05T06:39:17.298Z,34.23
2017-12-05T06:41:44.724Z,30.43
2017-12-05T06:44:12.155Z,28.77
2017-12-05T06:46:39.576Z,31.50
2017-12-05T06:49:06.998Z,30.27
2017-12-05T06:51:34.995Z,32.43
2017-12-05T06:54:02.701Z,27.83
2017-12-05T06:56:31.141Z,31.10
2017-12-05T06:59:05.950Z,28.83
2017-12-05T07:01:34.413Z,30.23
2017-12-05T07:04:05.856Z,28.40
2017-12-05T07:06:33.453Z,27.40
2017-12-05T07:09:01.113Z,25.00
2017-12-05T07:11:28.573Z,22.97
2017-12-05T07:13:55.974Z,21.23
2017-12-05T07:16:47.284Z,27.80
2017-12-05T07:19:14.720Z,23.50
2017-12-05T07:21:42.135Z,23.83
2017-12-05T07:24:09.839Z,23.63
2017-12-05T07:26:37.999Z,22.00
2017-12-05T07:29:05.419Z,22.70
2017-12-05T07:31:32.836Z,23.00
2017-12-05T07:34:00.579Z,24.67
2017-12-05T07:36:28.025Z,20.17
2017-12-05T07:38:56.214Z,22.50
2017-12-05T07:41:24.368Z,20.27
2017-12-05T07:43:53.024Z,20.43
2017-12-05T07:46:21.413Z,22.20
2017-12-05T07:48:48.838Z,19.43
2017-12-05T07:51:16.263Z,18.90
2017-12-05T07:53:44.269Z,16.17
2017-12-05T07:56:12.092Z,17.57
2017-12-05T07:58:40.274Z,22.50
2017-12-05T08:01:09.643Z,16.87
2017-12-05T08:03:37.067Z,16.80
2017-12-05T08:06:04.508Z,18.37
2017-12-05T08:08:31.922Z,19.43
2017-12-05T08:11:00.114Z,18.50
2017-12-05T08:13:27.543Z,16.23
2017-12-05T08:15:54.978Z,16.43
2017-12-05T08:18:22.392Z,15.37
2017-12-05T08:20:49.824Z,13.27
2017-12-05T08:23:18.673Z,16.57
2017-12-05T08:25:46.101Z,18.00
2017-12-05T08:28:13.931Z,14.20
2017-12-05T08:30:42.138Z,13.03
2017-12-05T08:33:09.556Z,16.63
2017-12-05T08:35:36.975Z,12.80
2017-12-05T08:38:04.395Z,13.63
2017-12-05T08:40:31.819Z,16.23
2017-12-05T08:42:59.248Z,13.30
2017-12-05T08:45:26.672Z,14.63
2017-12-05T08:47:54.087Z,17.50
2017-12-05T08:50:21.508Z,13.63
2017-12-05T08:52:48.930Z,11.53
2017-12-05T08:55:18.069Z,11.80
2017-12-05T08:57:46.220Z,11.40
2017-12-05T09:02:45.931Z,11.27
2017-12-05T09:05:13.343Z,10.63
2017-12-05T09:07:40.776Z,13.77
2017-12-05T09:10:08.203Z,9.27
2017-12-05T09:12:35.629Z,7.87
2017-12-05T09:15:03.096Z,10.30
2017-12-05T09:17:30.506Z,8.23
2017-12-05T09:19:57.926Z,8.33
2017-12-05T09:22:25.355Z,8.47
2017-12-05T09:24:52.779Z,10.70
2017-12-05T09:27:20.208Z,10.53
2017-12-05T09:29:47.743Z,12.20
2017-12-05T09:32:15.951Z,10.37
2017-12-05T09:34:43.375Z,12.20
2017-12-05T09:37:11.569Z,9.23
2017-12-05T09:39:38.990Z,9.40
2017-12-05T09:42:06.427Z,9.40
2017-12-05T09:44:33.844Z,10.17
2017-12-05T09:47:01.270Z,11.50
2017-12-05T09:49:29.472Z,9.70
2017-12-05T09:51:56.977Z,8.80
2017-12-05T09:54:24.370Z,7.77
2017-12-05T09:56:52.546Z,10.00
2017-12-05T09:59:21.556Z,10.03
2017-12-05T10:01:49.722Z,10.50
2017-12-05T10:04:19.622Z,10.43
2017-12-05T10:06:47.958Z,9.90
2017-12-05T10:09:15.716Z,6.77
2017-12-05T10:11:43.131Z,9.93
2017-12-05T10:14:10.547Z,7.80
2017-12-05T10:16:37.961Z,12.77
2017-12-05T10:19:05.377Z,11.67
2017-12-05T10:21:33.547Z,11.67
2017-12-05T10:24:00.955Z,8.53
2017-12-05T10:26:28.418Z,8.40
2017-12-05T10:28:56.542Z,9.37
2017-12-05T10:31:24.731Z,8.53
2017-12-05T10:33:53.618Z,14.47
2017-12-05T10:36:21.805Z,10.17
2017-12-05T10:38:49.220Z,12.43
2017-12-05T10:41:26.480Z,11.67
2017-12-05T10:43:53.901Z,13.73
2017-12-05T10:46:22.075Z,13.77
2017-12-05T10:48:49.494Z,9.37
2017-12-05T10:51:16.910Z,12.33
2017-12-05T10:53:44.810Z,11.97
2017-12-05T10:56:12.997Z,12.30
2017-12-05T10:58:40.696Z,9.10
2017-12-05T11:01:08.659Z,6.80
2017-12-05T11:03:36.083Z,11.07
2017-12-05T11:06:04.317Z,10.53
2017-12-05T11:08:31.743Z,12.63
2017-12-05T11:10:59.966Z,7.77
2017-12-05T11:13:27.359Z,8.63
2017-12-05T11:15:55.545Z,13.40
2017-12-05T11:18:24.442Z,13.20
2017-12-05T11:20:53.147Z,10.50
2017-12-05T11:23:20.778Z,10.40
2017-12-05T11:25:48.969Z,9.57
2017-12-05T11:28:16.382Z,11.80
2017-12-05T11:30:43.806Z,12.20
2017-12-05T11:33:12.533Z,10.40
2017-12-05T11:35:39.956Z,11.43
2017-12-05T11:38:07.866Z,8.53
2017-12-05T11:40:35.283Z,11.10
2017-12-05T11:43:03.478Z,9.27
2017-12-05T11:45:30.900Z,11.67
2017-12-05T11:47:58.888Z,11.33
2017-12-05T11:50:26.840Z,12.57
2017-12-05T11:52:54.835Z,7.63
2017-12-05T11:55:22.264Z,11.43
2017-12-05T11:57:50.191Z,7.97
2017-12-05T12:00:18.386Z,12.53
2017-12-05T12:02:47.075Z,11.30
2017-12-05T12:05:14.899Z,6.90
2017-12-05T12:07:44.340Z,9.90
2017-12-05T12:10:12.522Z,11.73
2017-12-05T12:12:39.948Z,12.50
2017-12-05T12:15:07.372Z,13.43
2017-12-05T12:17:34.831Z,14.47
2017-12-05T12:20:02.247Z,10.03
2017-12-05T12:22:29.672Z,16.07
2017-12-05T12:24:57.889Z,11.50
2017-12-05T12:27:26.591Z,11.93
2017-12-05T12:29:54.003Z,15.00
2017-12-05T12:32:22.179Z,12.57
2017-12-05T12:34:50.921Z,11.80
2017-12-05T12:37:19.189Z,13.00
2017-12-05T12:39:47.128Z,10.07
2017-12-05T12:42:14.545Z,13.47
2017-12-05T12:44:41.961Z,10.50
2017-12-05T12:47:09.595Z,12.60
2017-12-05T12:49:37.780Z,17.47
2017-12-05T12:52:05.743Z,12.73
2017-12-05T12:54:33.157Z,13.43
2017-12-05T12:57:00.563Z,10.70
2017-12-05T12:59:27.994Z,12.97
2017-12-05T13:01:55.412Z,13.97
2017-12-05T13:04:22.827Z,14.63
2017-12-05T13:06:50.247Z,16.10
2017-12-05T13:09:17.772Z,15.10
2017-12-05T13:11:45.191Z,16.53
2017-12-05T13:14:13.387Z,12.60
2017-12-05T13:16:40.796Z,15.93
2017-12-05T13:19:08.831Z,13.53
2017-12-05T13:21:36.524Z,13.83
2017-12-05T13:24:03.920Z,15.70
2017-12-05T13:26:31.607Z,15.13
2017-12-05T13:28:59.033Z,16.37
2017-12-05T13:31:27.216Z,16.93
2017-12-05T13:33:54.635Z,13.73
2017-12-05T13:36:22.534Z,14.63
2017-12-05T13:38:50.495Z,16.60
2017-12-05T13:41:18.676Z,16.70
2017-12-05T13:43:46.855Z,15.10
2017-12-05T13:46:14.398Z,16.97
2017-12-05T13:48:42.572Z,13.40
2017-12-05T13:51:10.754Z,16.20
2017-12-05T13:53:38.168Z,13.33
2017-12-05T13:56:05.589Z,14.90
2017-12-05T13:58:33.540Z,16.30
2017-12-05T14:01:00.960Z,15.47
2017-12-05T14:03:28.931Z,14.40
2017-12-05T14:05:56.607Z,17.07
2017-12-05T14:08:23.991Z,13.63
2017-12-05T14:10:51.411Z,16.33
2017-12-05T14:13:18.830Z,19.33
2017-12-05T14:15:46.256Z,15.43
2017-12-05T14:18:13.668Z,16.40
2017-12-05T14:20:41.099Z,19.37
2017-12-05T14:23:08.502Z,18.60
2017-12-05T14:25:36.708Z,17.60
2017-12-05T14:28:04.116Z,17.50
2017-12-05T14:30:32.044Z,20.43
2017-12-05T14:33:00.854Z,20.20
2017-12-05T14:35:28.290Z,16.97
2017-12-05T14:37:55.710Z,19.10
2017-12-05T14:40:23.908Z,18.07
2017-12-05T14:42:51.328Z,14.43
2017-12-05T14:45:18.751Z,17.03
2017-12-05T14:47:46.778Z,16.40
2017-12-05T14:50:15.637Z,16.63
2017-12-05T14:52:43.031Z,17.07
2017-12-05T14:55:10.452Z,14.47
2017-12-05T14:57:37.871Z,18.57
2017-12-05T15:00:05.291Z,17.73
2017-12-05T15:02:33.483Z,14.77
2017-12-05T15:05:00.919Z,17.67
2017-12-05T15:07:29.507Z,19.40
2017-12-05T15:09:57.341Z,16.97
2017-12-05T15:12:24.766Z,16.17
2017-12-05T15:14:52.196Z,16.67
2017-12-05T15:17:20.750Z,17.50
2017-12-05T15:19:48.938Z,16.87
2017-12-05T15:22:19.539Z,20.13
2017-12-05T15:24:47.727Z,16.73
2017-12-05T15:27:15.155Z,19.40
2017-12-05T15:29:42.570Z,19.00
2017-12-05T15:32:10.004Z,18.33
2017-12-05T15:34:38.186Z,18.37
2017-12-05T15:37:06.772Z,19.97
2017-12-05T15:39:34.955Z,19.20
2017-12-05T15:42:02.400Z,19.83
2017-12-05T15:44:31.001Z,20.90
2017-12-05T15:46:58.432Z,22.53
2017-12-05T15:49:28.560Z,19.43
2017-12-05T15:51:56.751Z,22.70
2017-12-05T15:54:24.172Z,19.33
2017-12-05T15:56:51.600Z,21.37
2017-12-05T15:59:19.476Z,17.60
2017-12-05T16:01:46.903Z,18.77
2017-12-05T16:04:15.852Z,19.33
2017-12-05T16:06:43.271Z,18.17
2017-12-05T16:09:10.691Z,22.20
2017-12-05T16:11:38.114Z,18.53
2017-12-05T16:14:06.086Z,20.20
2017-12-05T16:16:33.507Z,20.53
2017-12-05T16:19:01.531Z,22.03
2017-12-05T16:21:29.727Z,19.00
2017-12-05T16:23:57.152Z,20.37
2017-12-05T16:26:25.341Z,23.13
2017-12-05T16:28:53.531Z,21.60
2017-12-05T16:31:22.453Z,19.20
2017-12-05T16:33:50.140Z,20.33
2017-12-05T16:36:18.208Z,20.87
2017-12-05T16:38:45.627Z,21.03
2017-12-05T16:41:14.908Z,22.40
2017-12-05T16:43:42.335Z,21.80
2017-12-05T16:46:09.750Z,24.07
2017-12-05T16:48:37.192Z,20.87
2017-12-05T16:51:04.599Z,20.50
2017-12-05T16:53:32.514Z,23.63
2017-12-05T16:55:59.940Z,17.80
2017-12-05T16:58:28.120Z,20.70
2017-12-05T17:00:56.312Z,20.47
2017-12-05T17:03:23.733Z,16.73
2017-12-05T17:05:51.151Z,20.20
2017-12-05T17:08:19.432Z,15.40
2017-12-05T17:10:46.936Z,19.37
2017-12-05T17:13:17.287Z,21.37
2017-12-05T17:15:44.719Z,22.47
2017-12-05T17:18:12.897Z,19.03
2017-12-05T17:20:41.079Z,19.50
2017-12-05T17:23:09.397Z,18.57
2017-12-05T17:25:37.375Z,17.83
2017-12-05T17:28:04.795Z,21.10
2017-12-05T17:30:32.219Z,21.80
2017-12-05T17:33:00.399Z,18.70
2017-12-05T17:35:28.590Z,23.77
2017-12-05T17:37:56.011Z,21.03
2017-12-05T17:40:23.861Z,21.67
2017-12-05T17:42:51.279Z,20.37
2017-12-05T17:45:18.691Z,19.80
2017-12-05T17:47:46.508Z,18.70
2017-12-05T17:50:14.675Z,20.67
2017-12-05T17:52:42.089Z,18.93
2017-12-05T17:55:09.515Z,20.13
2017-12-05T17:57:39.489Z,19.63
2017-12-05T18:00:07.679Z,18.77
2017-12-05T18:02:35.674Z,20.73
2017-12-05T18:05:03.660Z,20.80
2017-12-05T18:07:31.078Z,20.27
2017-12-05T18:09:58.892Z,19.50
2017-12-05T18:12:26.733Z,20.97
2017-12-05T18:14:54.156Z,22.17
2017-12-05T18:17:21.575Z,23.97
2017-12-05T18:19:49.005Z,20.47
2017-12-05T18:22:16.430Z,22.03
2017-12-05T18:24:43.851Z,18.73
2017-12-05T18:27:11.283Z,17.87
2017-12-05T18:29:38.696Z,17.20
2017-12-05T18:32:06.118Z,19.87
2017-12-05T18:34:33.558Z,21.60
2017-12-05T18:37:01.387Z,24.17
2017-12-05T18:39:31.456Z,18.67
2017-12-05T18:42:00.067Z,18.77
2017-12-05T18:44:28.243Z,21.13
2017-12-05T18:46:55.667Z,19.67
2017-12-05T18:49:23.086Z,22.17
2017-12-05T18:51:50.508Z,19.13
2017-12-05T18:54:19.083Z,20.83
2017-12-05T18:56:46.791Z,22.80
2017-12-05T18:59:14.207Z,21.90
2017-12-05T19:01:42.404Z,20.40
2017-12-05T19:04:10.261Z,19.73
2017-12-05T19:06:37.686Z,20.93
2017-12-05T19:09:05.103Z,22.27
2017-12-05T19:11:32.539Z,22.30
2017-12-05T19:13:59.954Z,20.50
2017-12-05T19:16:27.421Z,19.30
2017-12-05T19:18:54.848Z,18.80
2017-12-05T19:21:22.306Z,19.57
2017-12-05T19:23:50.548Z,20.40
2017-12-05T19:26:18.754Z,17.73
2017-12-05T19:28:46.166Z,20.00
2017-12-05T19:31:13.607Z,19.57
2017-12-05T19:33:42.054Z,22.50
2017-12-05T19:36:09.471Z,21.23
2017-12-05T19:38:36.882Z,21.87
2017-12-05T19:41:04.305Z,22.07
2017-12-05T19:43:32.483Z,23.70
2017-12-05T19:45:59.955Z,23.87
2017-12-05T19:48:27.363Z,22.33
2017-12-05T19:50:55.089Z,19.93
2017-12-05T19:53:23.202Z,25.00
2017-12-05T19:55:50.638Z,21.80
2017-12-05T19:58:18.836Z,21.23
2017-12-05T20:00:46.285Z,21.57
2017-12-05T20:03:14.457Z,21.70
2017-12-05T20:05:41.909Z,20.60
2017-12-05T20:08:10.094Z,23.60
2017-12-05T20:10:37.533Z,21.97
2017-12-05T20:13:04.943Z,21.47
2017-12-05T20:15:32.381Z,22.73
2017-12-05T20:17:59.798Z,23.77
2017-12-05T20:20:27.982Z,22.13
2017-12-05T20:22:57.040Z,23.57
2017-12-05T20:25:24.446Z,22.87
2017-12-05T20:27:54.263Z,27.13
2017-12-05T20:30:21.683Z,22.10
2017-12-05T20:32:49.094Z,26.27
2017-12-05T20:35:17.339Z,20.57
2017-12-05T20:37:45.464Z,20.50
2017-12-05T20:40:13.111Z,22.07
2017-12-05T20:42:49.579Z,21.67
2017-12-05T20:45:17.008Z,25.40
2017-12-05T20:47:44.424Z,20.43
2017-12-05T20:50:11.838Z,22.40
2017-12-05T20:52:39.265Z,23.97
2017-12-05T20:55:07.460Z,24.83
2017-12-05T20:57:35.292Z,21.23
2017-12-05T21:00:03.894Z,22.37
2017-12-05T21:02:31.319Z,25.37
2017-12-05T21:04:59.374Z,24.27
2017-12-05T21:07:26.900Z,24.07
2017-12-05T21:09:54.324Z,25.07
2017-12-05T21:12:22.507Z,24.23
2017-12-05T21:14:50.695Z,26.73
2017-12-05T21:17:18.145Z,23.90
2017-12-05T21:19:45.533Z,26.07
2017-12-05T21:22:13.516Z,29.17
2017-12-05T21:24:41.476Z,26.40
2017-12-05T21:27:09.308Z,25.90
2017-12-05T21:29:38.334Z,25.57
2017-12-05T21:32:06.474Z,22.70
2017-12-05T21:34:34.441Z,26.17
2017-12-05T21:37:01.871Z,22.87
2017-12-05T21:39:29.291Z,24.87
2017-12-05T21:41:56.918Z,25.20
2017-12-05T21:44:24.340Z,25.97
2017-12-05T21:46:51.755Z,26.30
2017-12-05T21:49:19.175Z,28.63
2017-12-05T21:51:47.919Z,23.90
2017-12-05T21:54:15.339Z,23.60
2017-12-05T21:56:43.188Z,22.53
2017-12-05T21:59:11.916Z,23.60
2017-12-05T22:01:40.044Z,25.67
2017-12-05T22:04:08.222Z,20.83
2017-12-05T22:06:36.410Z,25.40
2017-12-05T22:09:03.837Z,22.70
2017-12-05T22:11:31.264Z,24.20
2017-12-05T22:13:58.798Z,20.83
2017-12-05T22:16:26.239Z,23.20
2017-12-05T22:18:53.658Z,25.37
2017-12-05T22:21:23.624Z,21.60
2017-12-05T22:23:51.052Z,24.13
2017-12-05T22:26:19.239Z,24.83
2017-12-05T22:28:47.087Z,20.23
2017-12-05T22:31:15.284Z,23.30
2017-12-05T22:33:43.143Z,21.60
2017-12-05T22:36:10.572Z,23.53
2017-12-05T22:38:38.310Z,24.43
2017-12-05T22:41:05.727Z,21.97
2017-12-05T22:43:33.147Z,21.43
2017-12-05T22:46:05.107Z,21.50
2017-12-05T22:48:32.971Z,23.13
2017-12-05T22:51:00.408Z,20.97
2017-12-05T22:53:27.828Z,24.97
2017-12-05T22:55:55.247Z,22.57
2017-12-05T22:58:24.380Z,23.73
2017-12-05T23:00:52.216Z,28.47
2017-12-05T23:03:19.915Z,27.10
2017-12-05T23:05:48.079Z,29.27
2017-12-05T23:08:15.804Z,25.37
2017-12-05T23:10:43.208Z,29.27
2017-12-05T23:13:10.903Z,29.17
2017-12-05T23:15:39.703Z,27.50
2017-12-05T23:18:07.148Z,28.50
2017-12-05T23:20:34.572Z,24.93
2017-12-05T23:23:01.984Z,23.77
2017-12-05T23:25:29.403Z,26.30
2017-12-05T23:27:57.963Z,28.13
2017-12-05T23:30:25.387Z,27.70
2017-12-05T23:32:52.808Z,29.33
2017-12-05T23:35:20.232Z,27.53
2017-12-05T23:37:49.812Z,29.20
2017-12-05T23:40:18.002Z,26.00
2017-12-05T23:42:45.849Z,23.20
2017-12-05T23:45:13.275Z,22.63
2017-12-05T23:47:40.690Z,25.03
2017-12-05T23:50:08.528Z,21.53
2017-12-05T23:52:35.938Z,22.40
2017-12-05T23:55:03.370Z,21.63
2017-12-05T23:57:30.779Z,24.67
2017-12-05T23:59:59.128Z,23.53
